15AL weather

Highfalls Stagefield Army Heliport
Fort Rucker/Hartford, Alabama, United States

Public forecast

Using degrees Fahrenheit for public forecast. Weather courtesy of forecast.io.

METAR (pilot weather report)

Closest report is Cairns AAF (Fort Rucker) Air Field, 11.6 nm (21.5 km) NNE. Retrieved 2017/12/15 15:56 UTC (34 minutes ago):

KOZR 151556Z AUTO 32006KT 10SM BKN140 08/04 A3014 RMK AO2 SLP210 T00810037

TAF (pilot weather forecast)

Closest forecast is Cairns AAF (Fort Rucker) Air Field, 11.6 nm (21.5 km) NNE. Retrieved 2017/12/15 16:08 UTC (22 minutes ago):

TAF KOZR 151600Z 1516/1622 31009KT 9999 FEW150 SCT250 QNH3011INS BECMG 1517/1518 32010G15KT 9999 FEW080 BKN100 QNH3009INS BECMG 1522/1523 31009KT 9999 FEW120 QNH3015INS TX12/1520Z TN01/1610Z